createdAt,value
2022-10-12T00:00:16.759Z,19.05
2022-10-12T00:02:43.569Z,21.10
2022-10-12T00:05:10.194Z,17.88
2022-10-12T00:07:37.278Z,19.95
2022-10-12T00:10:04.469Z,23.67
2022-10-12T00:12:31.002Z,25.30
2022-10-12T00:14:57.631Z,17.92
2022-10-12T00:17:24.083Z,22.75
2022-10-12T00:19:50.737Z,25.38
2022-10-12T00:22:17.181Z,18.27
2022-10-12T00:24:43.652Z,20.75
2022-10-12T00:27:10.105Z,18.15
2022-10-12T00:29:36.540Z,17.92
2022-10-12T00:32:02.987Z,21.60
2022-10-12T00:34:29.409Z,22.27
2022-10-12T00:36:56.570Z,21.35
2022-10-12T00:39:23.000Z,18.73
2022-10-12T00:41:49.473Z,22.35
2022-10-12T00:44:41.009Z,23.92
2022-10-12T00:47:22.658Z,18.73
2022-10-12T00:49:56.633Z,20.85
2022-10-12T00:52:28.632Z,17.35
2022-10-12T00:54:55.839Z,19.50
2022-10-12T00:57:23.530Z,15.70
2022-10-12T00:59:54.767Z,28.85
2022-10-12T01:02:24.155Z,23.58
2022-10-12T01:04:50.774Z,17.58
2022-10-12T01:07:17.536Z,20.60
2022-10-12T01:09:44.086Z,22.90
2022-10-12T01:12:11.285Z,22.83
2022-10-12T01:14:37.833Z,19.23
2022-10-12T01:17:48.458Z,24.40
2022-10-12T01:20:42.847Z,17.58
2022-10-12T01:23:18.595Z,22.38
2022-10-12T01:26:03.783Z,18.67
2022-10-12T01:29:02.311Z,21.15
2022-10-12T01:32:03.524Z,22.65
2022-10-12T01:34:40.317Z,21.80
2022-10-12T01:37:21.375Z,23.20
2022-10-12T01:39:54.357Z,21.33
2022-10-12T01:42:26.582Z,18.95
2022-10-12T01:45:08.862Z,22.02
2022-10-12T01:47:37.766Z,20.42
2022-10-12T01:50:08.107Z,22.60
2022-10-12T01:52:51.814Z,22.10
2022-10-12T01:55:38.961Z,24.00
2022-10-12T01:58:11.438Z,21.20
2022-10-12T02:00:52.026Z,19.58
2022-10-12T02:03:44.692Z,22.40
2022-10-12T02:06:18.701Z,24.75
2022-10-12T02:08:52.123Z,23.63
2022-10-12T02:11:21.453Z,24.05
2022-10-12T02:13:53.506Z,22.08
2022-10-12T02:16:24.746Z,24.50
2022-10-12T02:18:54.682Z,21.23
2022-10-12T02:21:27.169Z,25.00
2022-10-12T02:23:56.444Z,18.55
2022-10-12T02:26:23.771Z,26.25
2022-10-12T02:28:50.950Z,20.92
2022-10-12T02:31:35.214Z,26.05
2022-10-12T02:34:10.662Z,20.67
2022-10-12T02:37:11.720Z,25.30
2022-10-12T02:40:15.104Z,25.27
2022-10-12T02:43:09.217Z,23.67
2022-10-12T02:45:38.417Z,23.38
2022-10-12T02:48:06.147Z,24.08
2022-10-12T02:50:33.312Z,26.52
2022-10-12T02:52:59.819Z,21.48
2022-10-12T02:55:26.311Z,22.50
2022-10-12T02:57:52.820Z,22.63
2022-10-12T03:00:19.281Z,25.05
2022-10-12T03:02:45.662Z,22.30
2022-10-12T03:05:12.071Z,21.63
2022-10-12T03:07:38.662Z,17.98
2022-10-12T03:10:05.621Z,22.08
2022-10-12T03:12:32.038Z,19.23
2022-10-12T03:14:58.487Z,22.42
2022-10-12T03:17:24.879Z,23.88
2022-10-12T03:19:51.300Z,23.20
2022-10-12T03:22:17.722Z,22.00
2022-10-12T03:24:44.160Z,25.38
2022-10-12T03:27:10.583Z,25.17
2022-10-12T03:29:37.002Z,20.65
2022-10-12T03:32:03.510Z,20.92
2022-10-12T03:34:29.953Z,24.70
2022-10-12T03:36:56.362Z,27.90
2022-10-12T03:39:22.773Z,26.25
2022-10-12T03:41:49.205Z,20.23
2022-10-12T03:44:15.681Z,22.83
2022-10-12T03:46:42.066Z,20.90
2022-10-12T03:49:08.674Z,25.67
2022-10-12T03:51:35.224Z,24.75
2022-10-12T03:54:01.639Z,24.45
2022-10-12T03:56:28.232Z,23.45
2022-10-12T03:58:54.725Z,24.08
2022-10-12T04:01:21.197Z,22.70
2022-10-12T04:03:47.632Z,22.92
2022-10-12T04:06:14.087Z,33.15
2022-10-12T04:08:41.836Z,32.67
2022-10-12T04:11:08.522Z,27.10
2022-10-12T04:13:35.365Z,27.17
2022-10-12T04:16:06.332Z,25.17
2022-10-12T04:18:34.346Z,22.95
2022-10-12T04:21:01.629Z,24.08
2022-10-12T04:23:28.588Z,27.08
2022-10-12T04:25:54.978Z,27.00
2022-10-12T04:28:21.470Z,26.27
2022-10-12T04:30:47.921Z,22.88
2022-10-12T04:33:14.387Z,19.75
2022-10-12T04:35:40.785Z,22.67
2022-10-12T04:38:07.222Z,23.83
2022-10-12T04:40:33.654Z,25.25
2022-10-12T04:43:00.220Z,24.77
2022-10-12T04:45:26.634Z,21.90
2022-10-12T04:47:53.026Z,22.95
2022-10-12T04:50:19.823Z,24.52
2022-10-12T04:52:46.462Z,23.90
2022-10-12T04:55:12.874Z,20.55
2022-10-12T04:57:39.742Z,26.73
2022-10-12T05:00:07.767Z,21.40
2022-10-12T05:02:34.186Z,21.45
2022-10-12T05:05:00.659Z,20.88
2022-10-12T05:07:27.113Z,22.65
2022-10-12T05:09:53.648Z,22.38
2022-10-12T05:12:20.096Z,21.27
2022-10-12T05:14:46.585Z,24.38
2022-10-12T05:17:13.038Z,22.92
2022-10-12T05:19:39.553Z,28.95
2022-10-12T05:22:06.035Z,22.73
2022-10-12T05:24:32.574Z,22.90
2022-10-12T05:26:59.005Z,25.52
2022-10-12T05:29:25.465Z,26.90
2022-10-12T05:31:51.975Z,25.67
2022-10-12T05:34:18.432Z,24.50
2022-10-12T05:36:45.284Z,21.10
2022-10-12T05:39:11.710Z,21.65
2022-10-12T05:41:38.123Z,24.95
2022-10-12T05:44:04.783Z,26.50
2022-10-12T05:46:31.194Z,21.42
2022-10-12T05:48:57.654Z,21.50
2022-10-12T05:51:28.568Z,19.48
2022-10-12T05:53:55.356Z,27.63
2022-10-12T05:56:21.847Z,25.48
2022-10-12T05:58:48.289Z,22.70
2022-10-12T06:01:14.775Z,23.50
2022-10-12T06:03:41.218Z,27.20
2022-10-12T06:06:07.892Z,21.95
2022-10-12T06:08:34.947Z,27.92
2022-10-12T06:11:01.689Z,28.60
2022-10-12T06:13:28.252Z,24.73
2022-10-12T06:15:55.003Z,21.50
2022-10-12T06:18:22.263Z,26.08
2022-10-12T06:20:56.544Z,25.25
2022-10-12T06:23:35.483Z,26.48
2022-10-12T06:26:02.440Z,20.70
2022-10-12T06:28:29.210Z,35.80
2022-10-12T06:30:57.965Z,19.60
2022-10-12T06:33:24.942Z,26.63
2022-10-12T06:35:51.855Z,23.77
2022-10-12T06:38:18.335Z,24.48
2022-10-12T06:40:45.106Z,29.73
2022-10-12T06:43:11.626Z,33.67
2022-10-12T06:45:38.376Z,28.92
2022-10-12T06:48:05.563Z,28.25
2022-10-12T06:50:31.952Z,26.48
2022-10-12T06:52:58.394Z,29.17
2022-10-12T06:55:24.983Z,32.00
2022-10-12T06:57:51.443Z,29.08
2022-10-12T07:00:18.062Z,27.55
2022-10-12T07:02:44.557Z,24.30
2022-10-12T07:05:11.036Z,24.20
2022-10-12T07:07:37.962Z,22.85
2022-10-12T07:10:05.394Z,31.58
2022-10-12T07:12:31.782Z,34.00
2022-10-12T07:14:59.284Z,26.30
2022-10-12T07:17:25.755Z,23.75
2022-10-12T07:19:52.208Z,25.98
2022-10-12T07:22:18.647Z,29.00
2022-10-12T07:24:45.089Z,29.35
2022-10-12T07:27:11.737Z,35.15
2022-10-12T07:29:39.873Z,28.67
2022-10-12T07:32:07.481Z,28.00
2022-10-12T07:34:34.782Z,33.10
2022-10-12T07:37:01.443Z,28.90
2022-10-12T07:39:28.153Z,29.60
2022-10-12T07:41:55.085Z,28.65
2022-10-12T07:44:22.504Z,28.95
2022-10-12T07:46:49.210Z,28.67
2022-10-12T07:49:16.557Z,29.90
2022-10-12T07:51:43.305Z,26.92
2022-10-12T07:54:10.275Z,32.30
2022-10-12T07:56:36.876Z,30.98
2022-10-12T07:59:03.289Z,30.15
2022-10-12T08:01:31.206Z,28.70
2022-10-12T08:04:01.474Z,26.83
2022-10-12T08:06:30.794Z,24.60
2022-10-12T08:08:58.551Z,28.65
2022-10-12T08:11:25.083Z,27.85
2022-10-12T08:13:51.537Z,27.75
2022-10-12T08:16:21.026Z,25.08
2022-10-12T08:18:47.748Z,23.98
2022-10-12T08:21:15.786Z,27.50
2022-10-12T08:23:44.406Z,36.28
2022-10-12T08:26:12.179Z,25.33
2022-10-12T08:28:39.055Z,28.75
2022-10-12T08:31:11.899Z,23.42
2022-10-12T08:33:38.454Z,30.63
2022-10-12T08:36:06.954Z,26.17
2022-10-12T08:38:34.668Z,22.48
2022-10-12T08:41:21.283Z,23.95
2022-10-12T08:44:08.508Z,19.60
2022-10-12T08:46:35.169Z,23.95
2022-10-12T08:49:05.154Z,21.67
2022-10-12T08:51:40.115Z,24.48
2022-10-12T08:54:11.400Z,24.95
2022-10-12T08:56:40.175Z,22.13
2022-10-12T08:59:13.575Z,23.02
2022-10-12T09:01:57.226Z,25.08
2022-10-12T09:04:50.773Z,19.48
2022-10-12T09:07:26.591Z,20.95
2022-10-12T09:10:14.845Z,22.02
2022-10-12T09:12:55.458Z,21.85
2022-10-12T09:15:26.425Z,22.55
2022-10-12T09:17:55.467Z,15.57
2022-10-12T09:20:21.868Z,16.33
2022-10-12T09:22:58.641Z,13.80
2022-10-12T09:25:27.564Z,12.63
2022-10-12T09:27:57.855Z,15.98
2022-10-12T09:30:24.275Z,15.43
2022-10-12T09:33:09.919Z,15.48
2022-10-12T09:35:37.083Z,16.20
2022-10-12T09:38:03.860Z,12.05
2022-10-12T09:40:32.701Z,10.75
2022-10-12T09:43:01.810Z,17.23
2022-10-12T09:45:32.291Z,14.80
2022-10-12T09:48:31.285Z,13.48
2022-10-12T09:51:00.733Z,16.02
2022-10-12T09:53:27.500Z,18.35
2022-10-12T09:55:58.370Z,17.75
2022-10-12T09:58:26.977Z,12.07
2022-10-12T10:01:33.149Z,14.88
2022-10-12T10:04:32.085Z,18.40
2022-10-12T10:07:18.183Z,14.80
2022-10-12T10:09:45.195Z,18.85
2022-10-12T10:12:29.776Z,17.83
2022-10-12T10:14:58.085Z,12.93
2022-10-12T10:17:28.083Z,10.40
2022-10-12T10:19:56.772Z,13.00
2022-10-12T10:22:24.412Z,13.10
2022-10-12T10:24:56.387Z,13.13
2022-10-12T10:27:34.237Z,11.93
2022-10-12T10:30:29.518Z,15.02
2022-10-12T10:33:15.522Z,17.83
2022-10-12T10:35:54.344Z,10.57
2022-10-12T10:38:20.963Z,13.38
2022-10-12T10:40:52.548Z,16.20
2022-10-12T10:43:27.719Z,16.52
2022-10-12T10:46:03.117Z,6.28
2022-10-12T10:48:35.075Z,14.52
2022-10-12T10:51:05.110Z,13.10
2022-10-12T10:53:44.124Z,13.80
2022-10-12T10:56:16.398Z,8.82
2022-10-12T10:58:46.856Z,15.23
2022-10-12T11:01:28.400Z,15.13
2022-10-12T11:04:01.173Z,17.13
2022-10-12T11:06:43.192Z,15.45
2022-10-12T11:09:15.490Z,10.57
2022-10-12T11:11:45.441Z,14.23
2022-10-12T11:14:16.770Z,2.78
2022-10-12T11:16:55.361Z,13.10
2022-10-12T11:19:30.140Z,5.78
2022-10-12T11:22:06.163Z,12.63
2022-10-12T11:24:44.262Z,10.20
2022-10-12T11:27:22.764Z,7.85
2022-10-12T11:30:08.384Z,4.85
2022-10-12T11:32:41.472Z,10.15
2022-10-12T11:35:15.666Z,13.60
2022-10-12T11:38:14.903Z,8.65
2022-10-12T11:41:09.404Z,7.43
2022-10-12T11:43:50.591Z,11.68
2022-10-12T11:48:54.947Z,10.93
2022-10-12T11:51:21.383Z,10.85
2022-10-12T11:54:27.712Z,11.57
2022-10-12T11:56:58.669Z,9.93
2022-10-12T11:59:38.939Z,14.38
2022-10-12T12:02:27.163Z,14.48
2022-10-12T12:04:54.473Z,13.35
2022-10-12T12:07:54.456Z,15.15
2022-10-12T12:10:27.576Z,11.30
2022-10-12T12:13:17.542Z,9.05
2022-10-12T12:16:13.148Z,15.77
2022-10-12T12:19:10.646Z,10.02
2022-10-12T12:22:14.475Z,10.38
2022-10-12T12:24:52.624Z,12.20
2022-10-12T12:27:32.798Z,13.27
2022-10-12T12:30:24.482Z,12.35
2022-10-12T12:33:01.933Z,12.32
2022-10-12T12:35:31.474Z,7.22
2022-10-12T12:38:06.272Z,13.80
2022-10-12T12:40:33.517Z,10.13
2022-10-12T12:43:36.185Z,9.27
2022-10-12T12:46:20.910Z,2.10
2022-10-12T12:48:47.307Z,9.07
2022-10-12T12:51:15.235Z,10.70
2022-10-12T12:53:56.026Z,2.67
2022-10-12T12:56:59.764Z,9.20
2022-10-12T12:59:52.782Z,9.45
2022-10-12T13:02:49.332Z,9.25
2022-10-12T13:05:45.083Z,9.27
2022-10-12T13:08:35.210Z,13.00
2022-10-12T13:11:29.594Z,2.17
2022-10-12T13:14:12.131Z,9.43
2022-10-12T13:19:55.165Z,2.53
2022-10-12T13:22:29.433Z,1.60
2022-10-12T13:25:03.228Z,5.55
2022-10-12T13:27:49.816Z,7.82
2022-10-12T13:30:21.939Z,10.02
2022-10-12T13:32:59.010Z,10.68
2022-10-12T13:35:38.672Z,9.90
2022-10-12T13:38:27.001Z,14.68
2022-10-12T13:41:02.325Z,8.18
2022-10-12T13:43:34.045Z,8.85
2022-10-12T13:46:00.758Z,2.85
2022-10-12T13:48:54.020Z,5.53
2022-10-12T13:51:28.896Z,11.35
2022-10-12T13:53:56.148Z,5.88
2022-10-12T13:56:29.002Z,8.35
2022-10-12T13:59:05.577Z,12.32
2022-10-12T14:01:51.650Z,9.13
2022-10-12T14:04:18.054Z,12.85
2022-10-12T14:06:49.462Z,10.10
2022-10-12T14:09:20.800Z,5.75
2022-10-12T14:11:49.042Z,2.75
2022-10-12T14:14:31.617Z,9.35
2022-10-12T14:16:58.252Z,9.70
2022-10-12T14:19:40.050Z,11.02
2022-10-12T14:22:07.587Z,10.02
2022-10-12T14:24:37.360Z,12.93
2022-10-12T14:27:06.401Z,5.93
2022-10-12T14:29:39.395Z,2.70
2022-10-12T14:32:07.622Z,11.85
2022-10-12T14:35:08.807Z,12.95
2022-10-12T14:37:35.233Z,9.80
2022-10-12T14:40:24.075Z,7.95
2022-10-12T14:42:57.688Z,6.40
2022-10-12T14:45:25.898Z,10.00
2022-10-12T14:47:53.062Z,12.75
2022-10-12T14:50:21.686Z,15.05
2022-10-12T14:52:50.427Z,11.77
2022-10-12T14:55:19.882Z,9.63
2022-10-12T14:57:47.251Z,4.15
2022-10-12T15:00:18.676Z,11.43
2022-10-12T15:02:45.414Z,12.43
2022-10-12T15:05:14.133Z,11.63
2022-10-12T15:07:41.094Z,16.48
2022-10-12T15:10:08.396Z,9.48
2022-10-12T15:12:35.346Z,11.27
2022-10-12T15:15:17.617Z,10.27
2022-10-12T15:17:44.037Z,11.82
2022-10-12T15:20:11.003Z,10.93
2022-10-12T15:22:37.456Z,13.65
2022-10-12T15:25:18.047Z,15.93
2022-10-12T15:27:44.477Z,16.67
2022-10-12T15:30:11.556Z,13.48
2022-10-12T15:32:38.030Z,12.50
2022-10-12T15:35:20.029Z,11.23
2022-10-12T15:37:46.818Z,7.90
2022-10-12T15:40:13.709Z,10.27
2022-10-12T15:42:42.428Z,10.95
2022-10-12T15:45:24.702Z,13.90
2022-10-12T15:47:52.125Z,11.43
2022-10-12T15:50:24.646Z,8.88
2022-10-12T15:52:51.582Z,12.38
2022-10-12T15:55:24.218Z,13.18
2022-10-12T15:57:52.578Z,15.45
2022-10-12T16:00:22.232Z,18.10
2022-10-12T16:02:48.760Z,14.95
2022-10-12T16:05:30.426Z,15.40
2022-10-12T16:07:57.114Z,17.02
2022-10-12T16:10:26.756Z,16.67
2022-10-12T16:12:54.750Z,17.08
2022-10-12T16:15:29.446Z,33.90
2022-10-12T16:17:56.650Z,25.63
2022-10-12T16:20:23.891Z,29.88
2022-10-12T16:22:51.334Z,24.58
2022-10-12T16:25:21.414Z,21.95
2022-10-12T16:27:49.284Z,17.15
2022-10-12T16:30:16.025Z,15.27
2022-10-12T16:32:42.504Z,14.65
2022-10-12T16:35:09.402Z,22.10
2022-10-12T16:37:36.350Z,17.73
2022-10-12T16:40:04.993Z,26.00
2022-10-12T16:42:31.716Z,64.00
2022-10-12T16:44:58.143Z,58.53
2022-10-12T16:47:25.465Z,86.90
2022-10-12T16:49:53.823Z,22.83
2022-10-12T16:52:24.374Z,21.35
2022-10-12T16:54:51.964Z,20.20
2022-10-12T16:57:18.473Z,31.77
2022-10-12T16:59:44.929Z,24.40
2022-10-12T17:02:12.122Z,23.65
2022-10-12T17:04:38.563Z,19.67
2022-10-12T17:07:05.244Z,15.95
2022-10-12T17:09:31.749Z,24.73
2022-10-12T17:11:58.375Z,21.02
2022-10-12T17:14:24.849Z,20.92
2022-10-12T17:16:52.291Z,26.40
2022-10-12T17:19:21.414Z,23.13
2022-10-12T17:21:48.445Z,31.85
2022-10-12T17:24:18.205Z,23.48
2022-10-12T17:26:45.610Z,22.83
2022-10-12T17:29:15.721Z,21.33
2022-10-12T17:31:43.102Z,22.77
2022-10-12T17:34:18.313Z,21.80
2022-10-12T17:36:45.283Z,22.75
2022-10-12T17:39:11.798Z,18.98
2022-10-12T17:41:38.266Z,20.83
2022-10-12T17:44:04.785Z,25.58
2022-10-12T17:46:31.270Z,56.75
2022-10-12T17:48:59.210Z,24.60
2022-10-12T17:51:26.390Z,21.80
2022-10-12T17:53:53.529Z,22.23
2022-10-12T17:56:20.156Z,26.13
2022-10-12T17:58:46.655Z,27.63
2022-10-12T18:01:15.580Z,24.27
2022-10-12T18:03:44.571Z,21.25
2022-10-12T18:06:15.627Z,23.45
2022-10-12T18:08:43.227Z,19.35
2022-10-12T18:11:10.636Z,28.30
2022-10-12T18:13:38.013Z,22.55
2022-10-12T18:16:10.486Z,24.50
2022-10-12T18:18:38.152Z,19.55
2022-10-12T18:21:10.525Z,21.52
2022-10-12T18:23:37.403Z,22.08
2022-10-12T18:26:05.407Z,25.50
2022-10-12T18:28:32.019Z,40.65
2022-10-12T18:30:58.568Z,40.03
2022-10-12T18:33:25.705Z,27.27
2022-10-12T18:35:52.130Z,27.80
2022-10-12T18:38:18.840Z,30.58
2022-10-12T18:40:47.425Z,26.02
2022-10-12T18:43:14.334Z,26.55
2022-10-12T18:45:44.727Z,28.23
2022-10-12T18:48:12.325Z,20.52
2022-10-12T18:50:39.873Z,22.13
2022-10-12T18:53:06.772Z,19.42
2022-10-12T18:55:37.950Z,18.67
2022-10-12T18:58:04.359Z,22.00
2022-10-12T19:00:31.653Z,22.80
2022-10-12T19:02:58.335Z,21.58
2022-10-12T19:05:24.933Z,20.40
2022-10-12T19:07:51.355Z,27.65
2022-10-12T19:10:17.829Z,22.92
2022-10-12T19:12:45.819Z,26.02
2022-10-12T19:15:12.572Z,24.27
2022-10-12T19:17:39.044Z,30.35
2022-10-12T19:20:06.167Z,24.10
2022-10-12T19:22:33.334Z,21.80
2022-10-12T19:24:59.759Z,24.42
2022-10-12T19:27:26.213Z,24.10
2022-10-12T19:29:52.744Z,19.95
2022-10-12T19:32:19.591Z,23.15
2022-10-12T19:34:46.259Z,26.88
2022-10-12T19:37:12.739Z,24.35
2022-10-12T19:39:44.455Z,24.45
2022-10-12T19:42:10.952Z,31.85
2022-10-12T19:44:37.387Z,21.58
2022-10-12T19:47:03.924Z,22.67
2022-10-12T19:49:35.770Z,27.65
2022-10-12T19:52:03.672Z,26.20
2022-10-12T19:54:34.097Z,29.75
2022-10-12T19:57:02.401Z,24.48
2022-10-12T19:59:28.901Z,27.77
2022-10-12T20:01:55.339Z,21.60
2022-10-12T20:04:21.936Z,24.17
2022-10-12T20:06:48.369Z,25.60
2022-10-12T20:09:14.843Z,22.92
2022-10-12T20:11:41.284Z,27.45
2022-10-12T20:14:08.007Z,29.70
2022-10-12T20:16:35.397Z,35.53
2022-10-12T20:19:02.528Z,32.00
2022-10-12T20:21:28.944Z,33.90
2022-10-12T20:23:55.486Z,28.40
2022-10-12T20:26:24.111Z,31.15
2022-10-12T20:28:51.911Z,27.65
2022-10-12T20:31:22.908Z,26.15
2022-10-12T20:33:52.394Z,28.15
2022-10-12T20:36:22.456Z,23.75
2022-10-12T20:38:49.258Z,30.00
2022-10-12T20:41:21.206Z,25.25
2022-10-12T20:43:47.756Z,25.60
2022-10-12T20:46:15.996Z,29.45
2022-10-12T20:48:44.412Z,24.02
2022-10-12T20:51:18.937Z,25.83
2022-10-12T20:53:45.430Z,23.87
2022-10-12T20:56:12.032Z,28.10
2022-10-12T20:58:38.623Z,28.25
2022-10-12T21:01:07.299Z,27.50
2022-10-12T21:03:34.683Z,25.75
2022-10-12T21:06:06.823Z,27.30
2022-10-12T21:08:33.415Z,26.42
2022-10-12T21:11:00.258Z,26.38
2022-10-12T21:13:29.809Z,23.58
2022-10-12T21:15:56.642Z,23.15
2022-10-12T21:18:23.162Z,21.50
2022-10-12T21:21:04.928Z,21.73
2022-10-12T21:23:31.371Z,24.73
2022-10-12T21:25:57.890Z,31.23
2022-10-12T21:28:24.484Z,22.73
2022-10-12T21:30:50.998Z,29.17
2022-10-12T21:33:18.413Z,26.50
2022-10-12T21:35:45.069Z,24.67
2022-10-12T21:38:11.540Z,23.05
2022-10-12T21:40:37.993Z,25.52
2022-10-12T21:43:04.434Z,59.63
2022-10-12T21:45:30.874Z,30.73
2022-10-12T21:47:58.454Z,33.03
2022-10-12T21:50:24.963Z,35.20
2022-10-12T21:52:51.407Z,25.77
2022-10-12T21:55:17.821Z,27.45
2022-10-12T21:57:44.648Z,25.50
2022-10-12T22:00:11.867Z,26.02
2022-10-12T22:02:38.298Z,21.50
2022-10-12T22:05:05.143Z,26.08
2022-10-12T22:07:31.548Z,26.83
2022-10-12T22:09:59.078Z,24.00
2022-10-12T22:12:25.503Z,27.27
2022-10-12T22:14:51.938Z,29.42
2022-10-12T22:17:18.382Z,29.25
2022-10-12T22:19:44.827Z,27.40
2022-10-12T22:22:11.201Z,27.17
2022-10-12T22:24:37.665Z,27.10
2022-10-12T22:27:04.178Z,28.73
2022-10-12T22:29:30.722Z,24.60
2022-10-12T22:31:57.155Z,30.83
2022-10-12T22:34:23.606Z,26.80
2022-10-12T22:36:50.464Z,29.80
2022-10-12T22:39:17.704Z,28.73
2022-10-12T22:41:44.258Z,21.95
2022-10-12T22:44:10.779Z,27.65
2022-10-12T22:46:37.196Z,27.13
2022-10-12T22:49:04.190Z,27.60
2022-10-12T22:51:33.159Z,26.13
2022-10-12T22:54:00.356Z,33.30
2022-10-12T22:56:27.225Z,29.52
2022-10-12T22:58:58.343Z,32.00
2022-10-12T23:01:25.551Z,24.70
2022-10-12T23:03:53.232Z,28.15
2022-10-12T23:06:20.668Z,29.90
2022-10-12T23:08:47.709Z,26.58
2022-10-12T23:11:17.089Z,30.05
2022-10-12T23:13:44.383Z,30.92
2022-10-12T23:16:22.692Z,30.83
2022-10-12T23:18:59.251Z,29.17
2022-10-12T23:21:27.297Z,34.83
2022-10-12T23:23:53.949Z,27.50
2022-10-12T23:26:23.041Z,28.58
2022-10-12T23:28:50.114Z,29.95
2022-10-12T23:31:22.751Z,29.60
2022-10-12T23:33:49.357Z,29.15
2022-10-12T23:36:17.414Z,31.77
2022-10-12T23:38:45.014Z,28.10
2022-10-12T23:41:13.025Z,33.53
2022-10-12T23:43:39.790Z,28.67
2022-10-12T23:46:06.338Z,29.08
2022-10-12T23:48:33.808Z,28.65
2022-10-12T23:51:01.011Z,31.40
2022-10-12T23:53:27.626Z,30.77
2022-10-12T23:55:54.052Z,29.27
2022-10-12T23:58:20.802Z,32.20
